sensor_id;sensor_type;location;lat;lon;timestamp;temperature;humidity
1367;DHT22;16877;48.810;9.282;2022-12-20T00:00:48;14.10;54.60
1367;DHT22;16877;48.810;9.282;2022-12-20T00:03:17;14.00;54.50
1367;DHT22;16877;48.810;9.282;2022-12-20T00:05:46;14.10;54.60
1367;DHT22;16877;48.810;9.282;2022-12-20T00:08:14;14.00;54.50
1367;DHT22;16877;48.810;9.282;2022-12-20T00:10:43;14.00;54.50
1367;DHT22;16877;48.810;9.282;2022-12-20T00:13:13;14.00;54.50
1367;DHT22;16877;48.810;9.282;2022-12-20T00:15:40;14.00;54.40
1367;DHT22;16877;48.810;9.282;2022-12-20T00:18:08;14.00;54.40
1367;DHT22;16877;48.810;9.282;2022-12-20T00:20:38;14.00;54.40
1367;DHT22;16877;48.810;9.282;2022-12-20T00:23:06;14.00;54.40
1367;DHT22;16877;48.810;9.282;2022-12-20T00:25:34;14.00;54.40
1367;DHT22;16877;48.810;9.282;2022-12-20T00:28:01;14.00;54.40
1367;DHT22;16877;48.810;9.282;2022-12-20T00:30:29;14.00;54.40
1367;DHT22;16877;48.810;9.282;2022-12-20T00:32:56;14.00;54.50
1367;DHT22;16877;48.810;9.282;2022-12-20T00:35:24;14.00;54.50
1367;DHT22;16877;48.810;9.282;2022-12-20T00:37:53;14.00;54.50
1367;DHT22;16877;48.810;9.282;2022-12-20T00:40:20;14.00;54.50
1367;DHT22;16877;48.810;9.282;2022-12-20T00:42:48;14.00;54.50
1367;DHT22;16877;48.810;9.282;2022-12-20T00:45:16;13.90;54.40
1367;DHT22;16877;48.810;9.282;2022-12-20T00:47:43;13.90;54.40
1367;DHT22;16877;48.810;9.282;2022-12-20T00:50:11;13.90;54.40
1367;DHT22;16877;48.810;9.282;2022-12-20T00:52:38;13.90;54.40
1367;DHT22;16877;48.810;9.282;2022-12-20T00:55:11;13.90;54.50
1367;DHT22;16877;48.810;9.282;2022-12-20T00:57:39;13.90;54.40
1367;DHT22;16877;48.810;9.282;2022-12-20T01:00:10;13.90;54.50
1367;DHT22;16877;48.810;9.282;2022-12-20T01:02:38;13.90;54.50
1367;DHT22;16877;48.810;9.282;2022-12-20T01:05:08;13.90;54.50
1367;DHT22;16877;48.810;9.282;2022-12-20T01:07:39;13.90;54.50
1367;DHT22;16877;48.810;9.282;2022-12-20T01:10:23;13.90;54.50
1367;DHT22;16877;48.810;9.282;2022-12-20T01:12:50;13.90;54.50
1367;DHT22;16877;48.810;9.282;2022-12-20T01:15:18;13.90;54.50
1367;DHT22;16877;48.810;9.282;2022-12-20T01:17:45;13.90;54.60
1367;DHT22;16877;48.810;9.282;2022-12-20T01:20:13;13.90;54.60
1367;DHT22;16877;48.810;9.282;2022-12-20T01:22:41;13.90;54.70
1367;DHT22;16877;48.810;9.282;2022-12-20T01:25:09;13.90;54.70
1367;DHT22;16877;48.810;9.282;2022-12-20T01:27:37;13.90;54.70
1367;DHT22;16877;48.810;9.282;2022-12-20T01:30:07;13.90;54.80
1367;DHT22;16877;48.810;9.282;2022-12-20T01:32:34;13.90;54.80
1367;DHT22;16877;48.810;9.282;2022-12-20T01:35:02;13.90;54.80
1367;DHT22;16877;48.810;9.282;2022-12-20T01:37:30;13.90;54.80
1367;DHT22;16877;48.810;9.282;2022-12-20T01:39:58;13.90;54.90
1367;DHT22;16877;48.810;9.282;2022-12-20T01:42:25;13.90;54.90
1367;DHT22;16877;48.810;9.282;2022-12-20T01:45:12;13.90;54.90
1367;DHT22;16877;48.810;9.282;2022-12-20T01:47:42;13.90;55.00
1367;DHT22;16877;48.810;9.282;2022-12-20T01:50:11;13.90;54.90
1367;DHT22;16877;48.810;9.282;2022-12-20T01:52:40;13.90;54.80
1367;DHT22;16877;48.810;9.282;2022-12-20T01:55:13;13.90;54.80
1367;DHT22;16877;48.810;9.282;2022-12-20T01:57:44;13.90;54.80
1367;DHT22;16877;48.810;9.282;2022-12-20T02:00:17;13.90;54.80
1367;DHT22;16877;48.810;9.282;2022-12-20T02:02:45;13.90;54.80
1367;DHT22;16877;48.810;9.282;2022-12-20T02:05:14;13.90;54.80
1367;DHT22;16877;48.810;9.282;2022-12-20T02:07:42;13.90;54.80
1367;DHT22;16877;48.810;9.282;2022-12-20T02:10:11;13.90;54.90
1367;DHT22;16877;48.810;9.282;2022-12-20T02:12:40;13.90;54.90
1367;DHT22;16877;48.810;9.282;2022-12-20T02:15:31;13.90;54.90
1367;DHT22;16877;48.810;9.282;2022-12-20T02:18:12;13.90;54.90
1367;DHT22;16877;48.810;9.282;2022-12-20T02:21:11;13.90;54.80
1367;DHT22;16877;48.810;9.282;2022-12-20T02:24:24;13.90;54.90
1367;DHT22;16877;48.810;9.282;2022-12-20T02:27:15;13.90;55.00
1367;DHT22;16877;48.810;9.282;2022-12-20T02:30:12;13.90;55.00
1367;DHT22;16877;48.810;9.282;2022-12-20T02:32:57;13.90;55.00
1367;DHT22;16877;48.810;9.282;2022-12-20T02:35:27;13.80;54.90
1367;DHT22;16877;48.810;9.282;2022-12-20T02:37:57;13.80;55.00
1367;DHT22;16877;48.810;9.282;2022-12-20T02:40:31;13.80;55.00
1367;DHT22;16877;48.810;9.282;2022-12-20T02:43:05;13.80;55.00
1367;DHT22;16877;48.810;9.282;2022-12-20T02:45:57;13.80;54.90
1367;DHT22;16877;48.810;9.282;2022-12-20T02:48:26;13.80;54.90
1367;DHT22;16877;48.810;9.282;2022-12-20T02:50:56;13.80;55.10
1367;DHT22;16877;48.810;9.282;2022-12-20T02:53:25;13.80;55.10
1367;DHT22;16877;48.810;9.282;2022-12-20T02:55:58;13.80;55.10
1367;DHT22;16877;48.810;9.282;2022-12-20T02:58:30;13.80;55.10
1367;DHT22;16877;48.810;9.282;2022-12-20T03:01:05;13.80;55.60
1367;DHT22;16877;48.810;9.282;2022-12-20T03:03:35;13.80;55.00
1367;DHT22;16877;48.810;9.282;2022-12-20T03:06:03;13.80;55.00
1367;DHT22;16877;48.810;9.282;2022-12-20T03:08:30;13.90;55.10
1367;DHT22;16877;48.810;9.282;2022-12-20T03:11:12;13.90;55.10
1367;DHT22;16877;48.810;9.282;2022-12-20T03:13:40;13.80;55.10
1367;DHT22;16877;48.810;9.282;2022-12-20T03:16:25;13.80;55.10
1367;DHT22;16877;48.810;9.282;2022-12-20T03:18:52;13.80;54.90
1367;DHT22;16877;48.810;9.282;2022-12-20T03:21:20;13.80;54.90
1367;DHT22;16877;48.810;9.282;2022-12-20T03:23:47;13.80;54.90
1367;DHT22;16877;48.810;9.282;2022-12-20T03:26:15;13.80;55.00
1367;DHT22;16877;48.810;9.282;2022-12-20T03:28:42;13.80;55.60
1367;DHT22;16877;48.810;9.282;2022-12-20T03:31:11;13.80;55.10
1367;DHT22;16877;48.810;9.282;2022-12-20T03:33:40;13.90;55.30
1367;DHT22;16877;48.810;9.282;2022-12-20T03:36:08;13.90;55.40
1367;DHT22;16877;48.810;9.282;2022-12-20T03:38:35;13.90;55.40
1367;DHT22;16877;48.810;9.282;2022-12-20T03:41:18;13.90;55.50
1367;DHT22;16877;48.810;9.282;2022-12-20T03:43:48;13.90;55.50
1367;DHT22;16877;48.810;9.282;2022-12-20T03:46:16;13.90;55.50
1367;DHT22;16877;48.810;9.282;2022-12-20T03:48:45;13.90;55.50
1367;DHT22;16877;48.810;9.282;2022-12-20T03:51:13;13.90;55.50
1367;DHT22;16877;48.810;9.282;2022-12-20T03:53:41;13.90;55.50
1367;DHT22;16877;48.810;9.282;2022-12-20T03:56:12;13.90;55.40
1367;DHT22;16877;48.810;9.282;2022-12-20T03:58:40;13.90;55.40
1367;DHT22;16877;48.810;9.282;2022-12-20T04:01:21;13.90;55.40
1367;DHT22;16877;48.810;9.282;2022-12-20T04:03:51;13.90;55.40
1367;DHT22;16877;48.810;9.282;2022-12-20T04:06:20;13.90;55.30
1367;DHT22;16877;48.810;9.282;2022-12-20T04:08:48;13.90;55.20
1367;DHT22;16877;48.810;9.282;2022-12-20T04:11:19;13.90;55.20
1367;DHT22;16877;48.810;9.282;2022-12-20T04:13:48;13.90;55.20
1367;DHT22;16877;48.810;9.282;2022-12-20T04:16:18;13.90;55.10
1367;DHT22;16877;48.810;9.282;2022-12-20T04:18:46;13.90;55.00
1367;DHT22;16877;48.810;9.282;2022-12-20T04:21:18;13.90;55.10
1367;DHT22;16877;48.810;9.282;2022-12-20T04:23:47;13.90;55.00
1367;DHT22;16877;48.810;9.282;2022-12-20T04:26:15;13.90;55.20
1367;DHT22;16877;48.810;9.282;2022-12-20T04:28:44;13.90;55.10
1367;DHT22;16877;48.810;9.282;2022-12-20T04:31:26;13.90;55.10
1367;DHT22;16877;48.810;9.282;2022-12-20T04:33:53;13.90;55.10
1367;DHT22;16877;48.810;9.282;2022-12-20T04:36:23;14.00;55.20
1367;DHT22;16877;48.810;9.282;2022-12-20T04:38:50;14.00;55.30
1367;DHT22;16877;48.810;9.282;2022-12-20T04:41:18;13.90;55.20
1367;DHT22;16877;48.810;9.282;2022-12-20T04:43:49;14.00;55.40
1367;DHT22;16877;48.810;9.282;2022-12-20T04:46:17;13.90;55.40
1367;DHT22;16877;48.810;9.282;2022-12-20T04:48:49;13.90;55.50
1367;DHT22;16877;48.810;9.282;2022-12-20T04:51:17;13.90;55.40
1367;DHT22;16877;48.810;9.282;2022-12-20T04:53:50;13.90;55.40
1367;DHT22;16877;48.810;9.282;2022-12-20T04:56:17;13.90;55.40
1367;DHT22;16877;48.810;9.282;2022-12-20T04:58:46;13.90;55.30
1367;DHT22;16877;48.810;9.282;2022-12-20T05:01:14;13.90;55.20
1367;DHT22;16877;48.810;9.282;2022-12-20T05:03:42;13.90;55.30
1367;DHT22;16877;48.810;9.282;2022-12-20T05:06:09;13.90;55.30
1367;DHT22;16877;48.810;9.282;2022-12-20T05:08:37;13.90;55.20
1367;DHT22;16877;48.810;9.282;2022-12-20T05:11:07;13.90;55.20
1367;DHT22;16877;48.810;9.282;2022-12-20T05:13:35;13.90;55.20
1367;DHT22;16877;48.810;9.282;2022-12-20T05:16:03;13.90;55.30
1367;DHT22;16877;48.810;9.282;2022-12-20T05:18:31;13.90;55.30
1367;DHT22;16877;48.810;9.282;2022-12-20T05:21:02;14.00;55.40
1367;DHT22;16877;48.810;9.282;2022-12-20T05:23:47;14.00;55.50
1367;DHT22;16877;48.810;9.282;2022-12-20T05:26:36;14.00;55.50
1367;DHT22;16877;48.810;9.282;2022-12-20T05:29:04;14.00;55.50
1367;DHT22;16877;48.810;9.282;2022-12-20T05:31:34;14.00;55.50
1367;DHT22;16877;48.810;9.282;2022-12-20T05:34:02;14.00;55.50
1367;DHT22;16877;48.810;9.282;2022-12-20T05:36:29;14.00;55.50
1367;DHT22;16877;48.810;9.282;2022-12-20T05:38:56;14.00;55.50
1367;DHT22;16877;48.810;9.282;2022-12-20T05:41:25;14.00;55.40
1367;DHT22;16877;48.810;9.282;2022-12-20T05:43:54;14.00;55.40
1367;DHT22;16877;48.810;9.282;2022-12-20T05:46:31;14.00;55.40
1367;DHT22;16877;48.810;9.282;2022-12-20T05:48:59;14.00;55.40
1367;DHT22;16877;48.810;9.282;2022-12-20T05:51:27;14.00;55.50
1367;DHT22;16877;48.810;9.282;2022-12-20T05:53:55;14.00;55.50
1367;DHT22;16877;48.810;9.282;2022-12-20T05:56:22;14.00;55.50
1367;DHT22;16877;48.810;9.282;2022-12-20T05:58:50;14.00;55.50
1367;DHT22;16877;48.810;9.282;2022-12-20T06:01:19;14.00;55.40
1367;DHT22;16877;48.810;9.282;2022-12-20T06:04:01;14.10;55.50
1367;DHT22;16877;48.810;9.282;2022-12-20T06:06:29;14.10;55.50
1367;DHT22;16877;48.810;9.282;2022-12-20T06:09:10;14.10;55.40
1367;DHT22;16877;48.810;9.282;2022-12-20T06:11:38;14.10;55.40
1367;DHT22;16877;48.810;9.282;2022-12-20T06:14:05;14.10;55.40
1367;DHT22;16877;48.810;9.282;2022-12-20T06:16:34;14.10;55.40
1367;DHT22;16877;48.810;9.282;2022-12-20T06:19:01;14.10;55.40
1367;DHT22;16877;48.810;9.282;2022-12-20T06:21:29;14.10;55.40
1367;DHT22;16877;48.810;9.282;2022-12-20T06:23:56;14.10;55.40
1367;DHT22;16877;48.810;9.282;2022-12-20T06:26:26;14.10;55.50
1367;DHT22;16877;48.810;9.282;2022-12-20T06:29:00;14.10;55.50
1367;DHT22;16877;48.810;9.282;2022-12-20T06:31:28;14.10;55.60
1367;DHT22;16877;48.810;9.282;2022-12-20T06:33:57;14.10;55.60
1367;DHT22;16877;48.810;9.282;2022-12-20T06:36:25;14.10;55.60
1367;DHT22;16877;48.810;9.282;2022-12-20T06:38:52;14.10;55.60
1367;DHT22;16877;48.810;9.282;2022-12-20T06:41:20;14.10;55.60
1367;DHT22;16877;48.810;9.282;2022-12-20T06:43:49;14.10;55.60
1367;DHT22;16877;48.810;9.282;2022-12-20T06:46:21;14.10;55.80
1367;DHT22;16877;48.810;9.282;2022-12-20T06:49:05;14.10;55.90
1367;DHT22;16877;48.810;9.282;2022-12-20T06:51:33;14.10;55.90
1367;DHT22;16877;48.810;9.282;2022-12-20T06:54:01;14.10;55.90
1367;DHT22;16877;48.810;9.282;2022-12-20T06:56:43;14.10;55.80
1367;DHT22;16877;48.810;9.282;2022-12-20T06:59:25;14.10;55.90
1367;DHT22;16877;48.810;9.282;2022-12-20T07:02:09;14.10;56.10
1367;DHT22;16877;48.810;9.282;2022-12-20T07:04:38;14.10;56.20
1367;DHT22;16877;48.810;9.282;2022-12-20T07:07:07;14.10;56.10
1367;DHT22;16877;48.810;9.282;2022-12-20T07:09:35;14.10;56.10
1367;DHT22;16877;48.810;9.282;2022-12-20T07:12:06;14.10;56.10
1367;DHT22;16877;48.810;9.282;2022-12-20T07:14:34;14.10;56.10
1367;DHT22;16877;48.810;9.282;2022-12-20T07:17:02;14.10;56.60
1367;DHT22;16877;48.810;9.282;2022-12-20T07:19:35;14.20;56.10
1367;DHT22;16877;48.810;9.282;2022-12-20T07:22:04;14.20;56.10
1367;DHT22;16877;48.810;9.282;2022-12-20T07:24:35;14.20;56.10
1367;DHT22;16877;48.810;9.282;2022-12-20T07:27:03;14.20;56.10
1367;DHT22;16877;48.810;9.282;2022-12-20T07:29:46;14.20;56.10
1367;DHT22;16877;48.810;9.282;2022-12-20T07:32:14;14.20;56.00
1367;DHT22;16877;48.810;9.282;2022-12-20T07:34:42;14.30;56.10
1367;DHT22;16877;48.810;9.282;2022-12-20T07:37:12;14.30;56.00
1367;DHT22;16877;48.810;9.282;2022-12-20T07:39:42;14.30;56.50
1367;DHT22;16877;48.810;9.282;2022-12-20T07:42:10;15.40;70.00
1367;DHT22;16877;48.810;9.282;2022-12-20T07:44:53;16.40;67.40
1367;DHT22;16877;48.810;9.282;2022-12-20T07:47:27;17.10;63.50
1367;DHT22;16877;48.810;9.282;2022-12-20T07:49:57;17.60;60.60
1367;DHT22;16877;48.810;9.282;2022-12-20T07:52:28;18.20;59.40
1367;DHT22;16877;48.810;9.282;2022-12-20T07:55:09;18.60;58.50
1367;DHT22;16877;48.810;9.282;2022-12-20T07:57:40;19.00;57.60
1367;DHT22;16877;48.810;9.282;2022-12-20T08:00:10;19.30;57.20
1367;DHT22;16877;48.810;9.282;2022-12-20T08:02:56;19.60;56.70
1367;DHT22;16877;48.810;9.282;2022-12-20T08:05:26;19.50;56.30
1367;DHT22;16877;48.810;9.282;2022-12-20T08:07:59;19.50;56.00
1367;DHT22;16877;48.810;9.282;2022-12-20T08:10:28;19.40;55.70
1367;DHT22;16877;48.810;9.282;2022-12-20T08:12:59;19.10;54.50
1367;DHT22;16877;48.810;9.282;2022-12-20T08:15:28;18.80;53.60
1367;DHT22;16877;48.810;9.282;2022-12-20T08:17:55;18.60;53.10
1367;DHT22;16877;48.810;9.282;2022-12-20T08:20:37;18.30;52.90
1367;DHT22;16877;48.810;9.282;2022-12-20T08:23:11;18.10;52.60
1367;DHT22;16877;48.810;9.282;2022-12-20T08:25:39;17.90;52.60
1367;DHT22;16877;48.810;9.282;2022-12-20T08:28:06;17.70;52.60
1367;DHT22;16877;48.810;9.282;2022-12-20T08:30:35;17.50;52.50
1367;DHT22;16877;48.810;9.282;2022-12-20T08:33:04;17.40;52.60
1367;DHT22;16877;48.810;9.282;2022-12-20T08:35:34;17.20;52.50
1367;DHT22;16877;48.810;9.282;2022-12-20T08:38:13;17.10;52.50
1367;DHT22;16877;48.810;9.282;2022-12-20T08:40:43;16.90;52.60
1367;DHT22;16877;48.810;9.282;2022-12-20T08:43:12;16.90;52.90
1367;DHT22;16877;48.810;9.282;2022-12-20T08:45:40;16.70;52.60
1367;DHT22;16877;48.810;9.282;2022-12-20T08:48:07;16.60;52.70
1367;DHT22;16877;48.810;9.282;2022-12-20T08:50:37;16.60;52.90
1367;DHT22;16877;48.810;9.282;2022-12-20T08:53:05;16.50;53.00
1367;DHT22;16877;48.810;9.282;2022-12-20T08:55:45;16.40;53.10
1367;DHT22;16877;48.810;9.282;2022-12-20T08:58:21;16.40;53.20
1367;DHT22;16877;48.810;9.282;2022-12-20T09:01:06;16.40;53.30
1367;DHT22;16877;48.810;9.282;2022-12-20T09:03:36;16.30;53.40
1367;DHT22;16877;48.810;9.282;2022-12-20T09:06:06;16.30;53.40
1367;DHT22;16877;48.810;9.282;2022-12-20T09:08:35;16.30;53.60
1367;DHT22;16877;48.810;9.282;2022-12-20T09:11:11;16.30;53.70
1367;DHT22;16877;48.810;9.282;2022-12-20T09:13:39;16.20;53.50
1367;DHT22;16877;48.810;9.282;2022-12-20T09:16:08;16.20;53.60
1367;DHT22;16877;48.810;9.282;2022-12-20T09:18:37;16.10;53.50
1367;DHT22;16877;48.810;9.282;2022-12-20T09:21:06;16.10;53.40
1367;DHT22;16877;48.810;9.282;2022-12-20T09:23:49;16.10;53.50
1367;DHT22;16877;48.810;9.282;2022-12-20T09:26:24;16.10;53.50
1367;DHT22;16877;48.810;9.282;2022-12-20T09:29:00;16.10;53.50
1367;DHT22;16877;48.810;9.282;2022-12-20T09:31:33;16.10;53.60
1367;DHT22;16877;48.810;9.282;2022-12-20T09:34:02;16.10;53.70
1367;DHT22;16877;48.810;9.282;2022-12-20T09:36:31;16.10;53.80
1367;DHT22;16877;48.810;9.282;2022-12-20T09:39:09;16.10;53.90
1367;DHT22;16877;48.810;9.282;2022-12-20T09:41:53;16.10;53.90
1367;DHT22;16877;48.810;9.282;2022-12-20T09:44:29;16.10;54.00
1367;DHT22;16877;48.810;9.282;2022-12-20T09:47:03;16.10;54.00
1367;DHT22;16877;48.810;9.282;2022-12-20T09:49:38;16.10;54.10
1367;DHT22;16877;48.810;9.282;2022-12-20T09:52:40;16.10;54.20
1367;DHT22;16877;48.810;9.282;2022-12-20T09:55:18;16.10;54.10
1367;DHT22;16877;48.810;9.282;2022-12-20T09:58:04;16.20;54.20
1367;DHT22;16877;48.810;9.282;2022-12-20T10:00:35;16.20;54.20
1367;DHT22;16877;48.810;9.282;2022-12-20T10:03:09;16.20;54.20
1367;DHT22;16877;48.810;9.282;2022-12-20T10:05:46;16.20;54.30
1367;DHT22;16877;48.810;9.282;2022-12-20T10:08:26;16.30;54.50
1367;DHT22;16877;48.810;9.282;2022-12-20T10:11:45;16.30;54.50
1367;DHT22;16877;48.810;9.282;2022-12-20T10:14:29;16.30;55.00
1367;DHT22;16877;48.810;9.282;2022-12-20T10:17:03;16.30;54.30
1367;DHT22;16877;48.810;9.282;2022-12-20T10:19:48;16.30;54.30
1367;DHT22;16877;48.810;9.282;2022-12-20T10:22:25;16.30;54.30
1367;DHT22;16877;48.810;9.282;2022-12-20T10:24:58;16.30;54.30
1367;DHT22;16877;48.810;9.282;2022-12-20T10:27:43;16.40;54.40
1367;DHT22;16877;48.810;9.282;2022-12-20T10:30:16;16.40;54.50
1367;DHT22;16877;48.810;9.282;2022-12-20T10:32:57;16.40;54.50
1367;DHT22;16877;48.810;9.282;2022-12-20T10:35:41;16.40;54.50
1367;DHT22;16877;48.810;9.282;2022-12-20T10:38:10;16.40;54.50
1367;DHT22;16877;48.810;9.282;2022-12-20T10:40:40;16.40;54.50
1367;DHT22;16877;48.810;9.282;2022-12-20T10:46:19;16.40;54.50
1367;DHT22;16877;48.810;9.282;2022-12-20T10:48:47;16.40;54.50
1367;DHT22;16877;48.810;9.282;2022-12-20T10:51:17;16.40;54.50
1367;DHT22;16877;48.810;9.282;2022-12-20T10:53:56;16.40;54.60
1367;DHT22;16877;48.810;9.282;2022-12-20T10:56:27;16.40;54.70
1367;DHT22;16877;48.810;9.282;2022-12-20T10:58:56;16.40;54.60
1367;DHT22;16877;48.810;9.282;2022-12-20T11:01:43;16.40;54.70
1367;DHT22;16877;48.810;9.282;2022-12-20T11:04:26;16.40;54.80
1367;DHT22;16877;48.810;9.282;2022-12-20T11:06:54;16.40;54.80
1367;DHT22;16877;48.810;9.282;2022-12-20T11:09:34;16.40;54.80
1367;DHT22;16877;48.810;9.282;2022-12-20T11:12:36;16.40;55.00
1367;DHT22;16877;48.810;9.282;2022-12-20T11:15:30;16.40;55.00
1367;DHT22;16877;48.810;9.282;2022-12-20T11:18:05;16.40;55.00
1367;DHT22;16877;48.810;9.282;2022-12-20T11:20:56;16.40;55.00
1367;DHT22;16877;48.810;9.282;2022-12-20T11:23:34;16.50;55.10
1367;DHT22;16877;48.810;9.282;2022-12-20T11:26:19;16.50;55.20
1367;DHT22;16877;48.810;9.282;2022-12-20T11:29:02;16.50;55.20
1367;DHT22;16877;48.810;9.282;2022-12-20T11:31:41;16.50;55.20
1367;DHT22;16877;48.810;9.282;2022-12-20T11:34:22;16.50;56.20
1367;DHT22;16877;48.810;9.282;2022-12-20T11:37:19;17.50;64.60
1367;DHT22;16877;48.810;9.282;2022-12-20T11:40:02;18.50;61.60
1367;DHT22;16877;48.810;9.282;2022-12-20T11:42:54;18.60;57.80
1367;DHT22;16877;48.810;9.282;2022-12-20T11:45:29;19.30;58.40
1367;DHT22;16877;48.810;9.282;2022-12-20T11:51:03;20.20;56.50
1367;DHT22;16877;48.810;9.282;2022-12-20T11:53:39;20.60;55.80
1367;DHT22;16877;48.810;9.282;2022-12-20T11:56:12;20.90;55.10
1367;DHT22;16877;48.810;9.282;2022-12-20T11:58:51;21.20;54.70
1367;DHT22;16877;48.810;9.282;2022-12-20T12:01:23;21.40;54.40
1367;DHT22;16877;48.810;9.282;2022-12-20T12:04:12;21.60;54.10
1367;DHT22;16877;48.810;9.282;2022-12-20T12:06:45;21.90;53.80
1367;DHT22;16877;48.810;9.282;2022-12-20T12:09:20;21.90;53.70
1367;DHT22;16877;48.810;9.282;2022-12-20T12:11:52;21.70;53.70
1367;DHT22;16877;48.810;9.282;2022-12-20T12:14:29;21.40;53.10
1367;DHT22;16877;48.810;9.282;2022-12-20T12:17:06;21.10;52.90
1367;DHT22;16877;48.810;9.282;2022-12-20T12:19:42;20.80;52.60
1367;DHT22;16877;48.810;9.282;2022-12-20T12:22:20;20.50;52.70
1367;DHT22;16877;48.810;9.282;2022-12-20T12:24:51;20.30;52.30
1367;DHT22;16877;48.810;9.282;2022-12-20T12:27:23;20.00;51.80
1367;DHT22;16877;48.810;9.282;2022-12-20T12:29:51;19.80;51.90
1367;DHT22;16877;48.810;9.282;2022-12-20T12:32:37;19.60;52.10
1367;DHT22;16877;48.810;9.282;2022-12-20T12:44:32;19.00;53.60
1367;DHT22;16877;48.810;9.282;2022-12-20T12:47:05;18.90;53.50
1367;DHT22;16877;48.810;9.282;2022-12-20T12:49:34;18.80;53.90
1367;DHT22;16877;48.810;9.282;2022-12-20T12:52:03;18.70;54.30
1367;DHT22;16877;48.810;9.282;2022-12-20T12:54:36;18.60;54.40
1367;DHT22;16877;48.810;9.282;2022-12-20T12:57:20;18.50;54.50
1367;DHT22;16877;48.810;9.282;2022-12-20T12:59:49;18.50;54.70
1367;DHT22;16877;48.810;9.282;2022-12-20T13:02:49;18.40;54.80
1367;DHT22;16877;48.810;9.282;2022-12-20T13:05:33;18.40;55.10
1367;DHT22;16877;48.810;9.282;2022-12-20T13:08:01;18.30;55.10
1367;DHT22;16877;48.810;9.282;2022-12-20T13:11:01;18.20;55.00
1367;DHT22;16877;48.810;9.282;2022-12-20T13:13:30;18.10;55.10
1367;DHT22;16877;48.810;9.282;2022-12-20T13:16:26;18.10;55.40
1367;DHT22;16877;48.810;9.282;2022-12-20T13:19:10;18.10;55.60
1367;DHT22;16877;48.810;9.282;2022-12-20T13:21:54;18.00;55.70
1367;DHT22;16877;48.810;9.282;2022-12-20T13:24:46;17.90;55.70
1367;DHT22;16877;48.810;9.282;2022-12-20T13:27:34;17.90;55.90
1367;DHT22;16877;48.810;9.282;2022-12-20T13:30:23;17.80;56.10
1367;DHT22;16877;48.810;9.282;2022-12-20T13:36:01;18.20;59.20
1367;DHT22;16877;48.810;9.282;2022-12-20T13:38:38;18.30;57.80
1367;DHT22;16877;48.810;9.282;2022-12-20T13:41:21;18.40;57.80
1367;DHT22;16877;48.810;9.282;2022-12-20T13:43:55;18.40;56.90
1367;DHT22;16877;48.810;9.282;2022-12-20T13:46:25;18.30;56.30
1367;DHT22;16877;48.810;9.282;2022-12-20T13:48:59;18.30;56.20
1367;DHT22;16877;48.810;9.282;2022-12-20T13:51:29;18.20;56.30
1367;DHT22;16877;48.810;9.282;2022-12-20T13:53:58;18.10;56.30
1367;DHT22;16877;48.810;9.282;2022-12-20T13:56:37;18.10;57.40
1367;DHT22;16877;48.810;9.282;2022-12-20T13:59:14;18.00;56.00
1367;DHT22;16877;48.810;9.282;2022-12-20T14:01:50;18.00;55.60
1367;DHT22;16877;48.810;9.282;2022-12-20T14:04:17;18.00;55.30
1367;DHT22;16877;48.810;9.282;2022-12-20T14:06:50;17.90;55.00
1367;DHT22;16877;48.810;9.282;2022-12-20T14:09:27;17.90;54.90
1367;DHT22;16877;48.810;9.282;2022-12-20T14:12:02;17.80;54.80
1367;DHT22;16877;48.810;9.282;2022-12-20T14:14:35;17.80;54.80
1367;DHT22;16877;48.810;9.282;2022-12-20T14:17:24;17.70;54.70
1367;DHT22;16877;48.810;9.282;2022-12-20T14:20:13;17.70;54.70
1367;DHT22;16877;48.810;9.282;2022-12-20T14:22:46;17.60;54.60
1367;DHT22;16877;48.810;9.282;2022-12-20T14:25:17;17.70;59.60
1367;DHT22;16877;48.810;9.282;2022-12-20T14:27:49;18.10;63.40
1367;DHT22;16877;48.810;9.282;2022-12-20T14:30:30;18.20;60.00
1367;DHT22;16877;48.810;9.282;2022-12-20T14:32:59;18.20;57.70
1367;DHT22;16877;48.810;9.282;2022-12-20T14:35:27;18.10;56.90
1367;DHT22;16877;48.810;9.282;2022-12-20T14:38:20;18.00;56.50
1367;DHT22;16877;48.810;9.282;2022-12-20T14:40:48;17.90;56.00
1367;DHT22;16877;48.810;9.282;2022-12-20T14:43:25;17.90;55.80
1367;DHT22;16877;48.810;9.282;2022-12-20T14:46:14;17.80;55.60
1367;DHT22;16877;48.810;9.282;2022-12-20T14:48:44;17.70;55.50
1367;DHT22;16877;48.810;9.282;2022-12-20T14:51:12;17.60;55.40
1367;DHT22;16877;48.810;9.282;2022-12-20T14:53:40;17.60;55.40
1367;DHT22;16877;48.810;9.282;2022-12-20T14:56:13;17.60;55.30
1367;DHT22;16877;48.810;9.282;2022-12-20T14:58:42;17.50;55.10
1367;DHT22;16877;48.810;9.282;2022-12-20T15:01:19;17.40;55.10
1367;DHT22;16877;48.810;9.282;2022-12-20T15:03:50;17.40;55.00
1367;DHT22;16877;48.810;9.282;2022-12-20T15:06:32;17.30;54.90
1367;DHT22;16877;48.810;9.282;2022-12-20T15:09:00;17.30;55.00
1367;DHT22;16877;48.810;9.282;2022-12-20T15:11:27;17.30;54.90
1367;DHT22;16877;48.810;9.282;2022-12-20T15:14:20;17.20;54.80
1367;DHT22;16877;48.810;9.282;2022-12-20T15:16:49;17.20;56.80
1367;DHT22;16877;48.810;9.282;2022-12-20T15:19:18;17.20;57.20
1367;DHT22;16877;48.810;9.282;2022-12-20T15:21:46;17.20;57.40
1367;DHT22;16877;48.810;9.282;2022-12-20T15:24:14;17.20;56.20
1367;DHT22;16877;48.810;9.282;2022-12-20T15:26:44;17.20;55.90
1367;DHT22;16877;48.810;9.282;2022-12-20T15:29:14;17.10;55.60
1367;DHT22;16877;48.810;9.282;2022-12-20T15:31:43;17.10;55.30
1367;DHT22;16877;48.810;9.282;2022-12-20T15:34:14;17.10;55.40
1367;DHT22;16877;48.810;9.282;2022-12-20T15:36:44;17.00;55.10
1367;DHT22;16877;48.810;9.282;2022-12-20T15:39:12;16.90;55.00
1367;DHT22;16877;48.810;9.282;2022-12-20T15:41:42;16.90;54.90
1367;DHT22;16877;48.810;9.282;2022-12-20T15:44:13;16.90;54.90
1367;DHT22;16877;48.810;9.282;2022-12-20T15:46:41;16.80;54.90
1367;DHT22;16877;48.810;9.282;2022-12-20T15:49:14;16.80;55.00
1367;DHT22;16877;48.810;9.282;2022-12-20T15:51:45;16.80;55.10
1367;DHT22;16877;48.810;9.282;2022-12-20T15:54:20;16.70;55.00
1367;DHT22;16877;48.810;9.282;2022-12-20T15:56:49;16.70;55.00
1367;DHT22;16877;48.810;9.282;2022-12-20T15:59:17;16.70;55.10
1367;DHT22;16877;48.810;9.282;2022-12-20T16:01:45;16.70;55.10
1367;DHT22;16877;48.810;9.282;2022-12-20T16:04:16;16.60;55.00
1367;DHT22;16877;48.810;9.282;2022-12-20T16:06:45;16.60;55.20
1367;DHT22;16877;48.810;9.282;2022-12-20T16:09:13;16.60;55.20
1367;DHT22;16877;48.810;9.282;2022-12-20T16:11:41;16.60;55.40
1367;DHT22;16877;48.810;9.282;2022-12-20T16:14:23;16.50;55.50
1367;DHT22;16877;48.810;9.282;2022-12-20T16:16:52;16.50;55.30
1367;DHT22;16877;48.810;9.282;2022-12-20T16:19:21;16.50;55.50
1367;DHT22;16877;48.810;9.282;2022-12-20T16:21:50;16.50;55.30
1367;DHT22;16877;48.810;9.282;2022-12-20T16:24:19;16.50;55.50
1367;DHT22;16877;48.810;9.282;2022-12-20T16:26:48;16.40;55.30
1367;DHT22;16877;48.810;9.282;2022-12-20T16:29:16;16.40;55.30
1367;DHT22;16877;48.810;9.282;2022-12-20T16:31:43;16.40;55.40
1367;DHT22;16877;48.810;9.282;2022-12-20T16:34:14;16.40;55.40
1367;DHT22;16877;48.810;9.282;2022-12-20T16:36:43;16.50;55.50
1367;DHT22;16877;48.810;9.282;2022-12-20T16:39:11;16.40;55.40
1367;DHT22;16877;48.810;9.282;2022-12-20T16:41:40;16.40;55.40